Time;durP1;ratioP1;P1;durP2;ratioP2;P2;SDS_P1;SDS_P2;PMS_P1;PMS_P2;Temp;Humidity;BMP_temperature;BMP_pressure;BME280_temperature;BME280_humidity;BME280_pressure;Samples;Min_cycle;Max_cycle;Signal;HPM_P1;HPM_P2
2022/08/02 00:07:16;;;;;;;3.90;2.73;;;18.20;99.90;;;;;;5056679;28;20161;-57
2022/08/02 00:09:45;;;;;;;3.10;2.77;;;18.20;99.90;;;;;;5074645;28;20311;-58
2022/08/02 00:12:14;;;;;;;5.40;2.97;;;18.10;99.90;;;;;;5074620;28;20205;-59
2022/08/02 00:14:42;;;;;;;3.10;2.90;;;18.10;99.90;;;;;;5074694;28;20707;-58
2022/08/02 00:17:10;;;;;;;3.13;2.80;;;18.10;99.90;;;;;;5073308;28;20184;-58
2022/08/02 00:19:39;;;;;;;3.57;3.10;;;18.00;99.90;;;;;;5074738;28;20187;-58
2022/08/02 00:22:10;;;;;;;4.40;3.33;;;17.90;99.90;;;;;;5074310;28;20707;-58
2022/08/02 00:24:39;;;;;;;5.63;3.30;;;17.90;99.90;;;;;;5073031;28;20237;-59
2022/08/02 00:27:09;;;;;;;4.07;3.20;;;17.80;99.90;;;;;;5057751;28;20267;-58
2022/08/02 00:29:38;;;;;;;5.40;3.20;;;17.70;99.90;;;;;;5054387;28;20299;-57
2022/08/02 00:32:20;;;;;;;4.93;3.53;;;17.70;99.90;;;;;;5054324;28;20197;-58
2022/08/02 00:34:49;;;;;;;4.63;3.70;;;17.70;99.90;;;;;;5069129;28;20677;-58
2022/08/02 00:37:17;;;;;;;6.20;4.07;;;17.70;99.90;;;;;;5073130;28;20196;-58
2022/08/02 00:39:46;;;;;;;4.00;3.60;;;17.70;99.90;;;;;;5074375;28;20191;-58
2022/08/02 00:42:16;;;;;;;6.27;3.57;;;17.60;99.90;;;;;;5074217;28;20581;-58
2022/08/02 00:44:44;;;;;;;4.63;4.13;;;17.60;99.90;;;;;;5061056;28;20275;-58
2022/08/02 00:47:12;;;;;;;4.43;3.90;;;17.50;99.90;;;;;;5054160;28;20273;-58
2022/08/02 00:49:47;;;;;;;4.27;3.97;;;17.50;99.90;;;;;;5052821;28;20223;-59
2022/08/02 00:52:15;;;;;;;4.37;3.97;;;17.50;99.90;;;;;;5053769;28;20227;-58
2022/08/02 00:54:43;;;;;;;4.60;4.20;;;17.50;99.90;;;;;;5054338;28;20189;-58
2022/08/02 00:57:11;;;;;;;4.50;4.20;;;17.50;99.90;;;;;;5054089;28;20280;-58
2022/08/02 00:59:41;;;;;;;4.30;3.83;;;17.50;99.90;;;;;;5053922;28;20257;-57
2022/08/02 01:07:02;;;;;;;4.23;3.87;;;17.50;99.90;;;;;;5071802;28;20181;-58
2022/08/02 01:09:41;;;;;;;4.60;4.30;;;17.50;99.90;;;;;;5073172;28;20680;-57
2022/08/02 01:12:11;;;;;;;4.40;3.97;;;17.50;99.90;;;;;;5074227;28;20180;-58
2022/08/02 01:14:45;;;;;;;5.90;3.80;;;17.60;99.90;;;;;;5073463;28;20201;-57
2022/08/02 01:17:20;;;;;;;4.03;3.70;;;17.60;99.90;;;;;;5073760;28;20200;-58
2022/08/02 01:19:57;;;;;;;7.43;4.07;;;17.70;99.90;;;;;;5073579;28;20234;-58
2022/08/02 01:22:43;;;;;;;7.00;3.53;;;17.70;99.90;;;;;;5073323;28;20539;-58
2022/08/02 01:25:40;;;;;;;5.37;3.80;;;17.70;99.90;;;;;;5073541;28;20224;-57
2022/08/02 01:28:32;;;;;;;5.30;4.03;;;17.70;99.90;;;;;;5073299;28;20202;-57
2022/08/02 01:31:05;;;;;;;10.60;4.00;;;17.70;99.90;;;;;;5073504;28;20187;-57
2022/08/02 01:33:41;;;;;;;5.43;4.20;;;17.70;99.90;;;;;;5073645;28;20280;-57
2022/08/02 01:36:12;;;;;;;4.77;4.00;;;17.60;99.90;;;;;;5068795;28;20281;-58
2022/08/02 01:38:46;;;;;;;6.37;4.03;;;17.60;99.90;;;;;;5081444;28;20747;-58
2022/08/02 01:41:18;;;;;;;6.27;4.10;;;17.60;99.90;;;;;;5073318;28;20237;-57
2022/08/02 01:43:52;;;;;;;5.07;4.57;;;17.60;99.90;;;;;;5073527;28;20199;-58
2022/08/02 01:46:22;;;;;;;9.73;4.73;;;17.60;99.90;;;;;;5072359;28;20176;-57
2022/08/02 01:48:53;;;;;;;6.20;4.47;;;17.60;99.90;;;;;;5073394;28;20217;-58
2022/08/02 01:52:20;;;;;;;4.83;4.43;;;17.60;99.90;;;;;;5073210;28;20287;-57
2022/08/02 01:54:17;;;;;;;5.03;4.53;;;17.60;99.90;;;;;;5064859;28;20261;-57
2022/08/02 01:56:46;;;;;;;6.50;4.83;;;17.70;99.90;;;;;;5087686;28;20191;-58
2022/08/02 01:59:21;;;;;;;5.17;4.70;;;17.70;99.90;;;;;;5057116;28;20611;-58
2022/08/02 02:01:52;;;;;;;5.30;4.20;;;17.70;99.90;;;;;;5074724;28;20279;-57
2022/08/02 02:04:21;;;;;;;4.60;4.20;;;17.80;99.90;;;;;;5076942;28;20206;-58
2022/08/02 02:06:50;;;;;;;6.37;4.40;;;17.70;99.90;;;;;;5076693;28;20192;-58
2022/08/02 02:09:20;;;;;;;6.53;4.70;;;17.80;99.90;;;;;;5055169;28;20235;-58
2022/08/02 02:11:49;;;;;;;11.27;5.20;;;17.80;99.90;;;;;;5072687;28;20195;-57
2022/08/02 02:14:40;;;;;;;8.83;5.20;;;17.80;99.90;;;;;;5076885;28;20198;-57
2022/08/02 02:17:21;;;;;;;9.93;5.47;;;17.80;99.90;;;;;;5076935;28;20697;-58
2022/08/02 02:20:13;;;;;;;12.47;5.10;;;17.70;99.90;;;;;;5075823;28;20188;-58
2022/08/02 02:22:42;;;;;;;5.50;4.33;;;17.70;99.90;;;;;;5076924;28;20214;-58
2022/08/02 02:25:13;;;;;;;9.13;5.20;;;17.60;99.90;;;;;;5075352;28;20509;-58
2022/08/02 02:27:50;;;;;;;6.50;5.07;;;17.60;99.90;;;;;;5076667;28;20196;-58
2022/08/02 02:30:19;;;;;;;5.70;5.20;;;17.70;99.90;;;;;;5076999;28;20293;-58
2022/08/02 02:32:51;;;;;;;7.70;5.70;;;17.60;99.90;;;;;;5076685;28;20225;-58
2022/08/02 02:35:21;;;;;;;7.50;5.57;;;17.70;99.90;;;;;;5075150;28;20283;-58
2022/08/02 02:37:51;;;;;;;10.67;6.07;;;17.70;99.90;;;;;;5076539;28;20276;-58
2022/08/02 02:40:20;;;;;;;6.60;5.80;;;17.70;99.90;;;;;;5075240;28;20184;-58
2022/08/02 02:42:51;;;;;;;6.50;5.77;;;17.70;99.90;;;;;;5075161;28;20196;-58
2022/08/02 02:45:21;;;;;;;9.37;6.30;;;17.80;99.90;;;;;;5071264;28;20267;-58
2022/08/02 02:47:50;;;;;;;7.83;7.07;;;17.80;99.90;;;;;;5055893;28;20616;-59
2022/08/02 02:50:20;;;;;;;9.70;7.43;;;17.80;99.90;;;;;;5063604;28;20299;-58
2022/08/02 02:52:49;;;;;;;7.10;6.40;;;17.90;99.90;;;;;;5058280;28;20224;-58
2022/08/02 02:55:18;;;;;;;7.17;6.47;;;17.90;99.90;;;;;;5055870;28;20298;-59
2022/08/02 02:57:47;;;;;;;7.63;6.93;;;17.90;99.90;;;;;;5056268;28;20664;-59
2022/08/02 03:00:16;;;;;;;11.53;6.30;;;17.80;99.90;;;;;;5054612;28;20189;-59
2022/08/02 03:02:47;;;;;;;9.40;6.50;;;17.80;99.90;;;;;;5056361;28;20284;-58
2022/08/02 03:05:16;;;;;;;8.23;6.77;;;17.70;99.90;;;;;;5056182;28;20212;-58
2022/08/02 03:07:44;;;;;;;7.73;6.93;;;17.70;99.90;;;;;;5053473;28;20194;-58
2022/08/02 03:10:12;;;;;;;8.30;6.60;;;17.70;99.90;;;;;;5055724;28;20749;-58
2022/08/02 03:12:41;;;;;;;7.83;6.13;;;17.70;99.90;;;;;;5070692;28;20204;-58
2022/08/02 03:15:13;;;;;;;11.97;6.70;;;17.70;99.90;;;;;;5075716;28;20283;-58
2022/08/02 03:17:43;;;;;;;7.57;6.20;;;17.70;99.90;;;;;;5075597;28;20224;-58
2022/08/02 03:20:14;;;;;;;7.33;6.50;;;17.70;99.90;;;;;;5074224;28;20261;-58
2022/08/02 03:22:45;;;;;;;8.43;6.53;;;17.60;99.90;;;;;;5074317;28;20216;-58
2022/08/02 03:25:14;;;;;;;6.90;6.30;;;17.60;99.90;;;;;;5075919;28;20270;-58
2022/08/02 03:27:43;;;;;;;6.97;6.30;;;17.60;99.90;;;;;;5071026;28;20196;-59
2022/08/02 03:30:13;;;;;;;6.60;5.97;;;17.50;99.90;;;;;;5101266;28;20212;-58
2022/08/02 03:32:46;;;;;;;8.97;6.53;;;17.50;99.90;;;;;;5054414;28;20548;-58
2022/08/02 03:35:18;;;;;;;8.93;6.20;;;17.50;99.90;;;;;;5059356;28;20302;-58
2022/08/02 03:37:53;;;;;;;7.20;6.50;;;17.50;99.90;;;;;;5075487;28;20251;-58
2022/08/02 03:40:23;;;;;;;8.60;6.47;;;17.40;99.90;;;;;;5075651;28;20188;-58
2022/08/02 03:42:52;;;;;;;11.80;6.60;;;17.40;99.90;;;;;;5075162;28;20225;-57
2022/08/02 03:45:20;;;;;;;7.07;6.20;;;17.40;99.90;;;;;;5075387;28;20194;-59
2022/08/02 03:47:50;;;;;;;7.57;6.50;;;17.40;99.90;;;;;;5074082;28;20192;-58
2022/08/02 03:50:21;;;;;;;11.77;6.77;;;17.30;99.90;;;;;;5082527;28;20217;-58
2022/08/02 03:52:50;;;;;;;7.27;6.07;;;17.30;99.90;;;;;;5095736;28;20180;-58
2022/08/02 03:55:19;;;;;;;7.33;6.20;;;17.30;99.90;;;;;;5095440;28;20198;-58
2022/08/02 03:57:47;;;;;;;8.10;7.27;;;17.30;99.90;;;;;;5095045;28;20223;-58
2022/08/02 04:00:19;;;;;;;13.97;6.63;;;17.20;99.90;;;;;;5094000;28;20188;-58
2022/08/02 04:03:12;;;;;;;7.53;6.80;;;17.20;99.90;;;;;;5080363;28;20203;-58
2022/08/02 04:05:48;;;;;;;7.07;6.37;;;17.10;99.90;;;;;;5073931;28;20192;-59
2022/08/02 04:08:31;;;;;;;11.10;6.90;;;17.00;99.90;;;;;;5074600;28;20224;-58
2022/08/02 04:13:50;;;;;;;11.27;6.67;;;16.90;99.90;;;;;;5074621;28;20199;-58
2022/08/02 04:16:29;;;;;;;10.50;6.83;;;16.80;99.90;;;;;;5074684;28;20782;-58
2022/08/02 04:19:02;;;;;;;7.00;6.37;;;16.80;99.90;;;;;;5074104;28;20241;-58
2022/08/02 04:21:36;;;;;;;6.97;6.33;;;16.70;99.90;;;;;;5074352;28;20266;-58
2022/08/02 04:24:23;;;;;;;10.53;7.37;;;16.70;99.90;;;;;;5074959;28;20207;-58
2022/08/02 04:26:54;;;;;;;7.73;6.93;;;16.70;99.90;;;;;;5074720;28;20639;-58
2022/08/02 04:29:29;;;;;;;8.53;6.83;;;16.60;99.90;;;;;;5076263;28;20255;-58
2022/08/02 04:31:58;;;;;;;8.63;6.63;;;16.60;99.90;;;;;;5086933;28;20640;-58
2022/08/02 04:34:27;;;;;;;7.43;6.73;;;16.60;99.90;;;;;;5074342;28;20282;-58
2022/08/02 04:36:57;;;;;;;9.93;6.90;;;16.60;99.90;;;;;;5072839;28;20285;-58
2022/08/02 04:39:26;;;;;;;9.90;6.77;;;16.60;99.90;;;;;;5054040;28;20267;-57
2022/08/02 04:41:54;;;;;;;8.63;6.23;;;16.50;99.90;;;;;;5061223;28;20197;-58
2022/08/02 04:44:25;;;;;;;8.33;6.20;;;16.50;99.90;;;;;;5106689;28;20189;-58
2022/08/02 04:46:54;;;;;;;6.93;6.00;;;16.50;99.90;;;;;;5073930;28;20218;-57
2022/08/02 04:49:23;;;;;;;8.00;6.47;;;16.50;99.90;;;;;;5073933;28;20192;-57
2022/08/02 04:51:51;;;;;;;10.57;6.63;;;16.50;99.90;;;;;;5071179;28;20207;-57
2022/08/02 04:54:21;;;;;;;8.13;7.30;;;16.50;99.90;;;;;;5054229;28;20185;-58
2022/08/02 04:56:49;;;;;;;8.10;6.53;;;16.50;99.90;;;;;;5053867;28;20638;-57
2022/08/02 04:59:18;;;;;;;9.63;7.63;;;16.50;99.90;;;;;;5053998;28;20197;-58
2022/08/02 05:01:46;;;;;;;8.63;7.03;;;16.50;99.90;;;;;;5072043;28;20199;-57
2022/08/02 05:04:15;;;;;;;8.47;7.13;;;16.50;99.90;;;;;;5073809;28;20186;-58
2022/08/02 05:06:43;;;;;;;8.70;7.07;;;16.50;99.90;;;;;;5055670;28;20201;-58
2022/08/02 05:09:12;;;;;;;10.47;6.77;;;16.60;99.90;;;;;;5073434;28;20778;-57
2022/08/02 05:11:41;;;;;;;10.87;7.10;;;16.70;99.90;;;;;;5072672;28;20535;-58
2022/08/02 05:14:21;;;;;;;14.23;7.13;;;16.70;99.90;;;;;;5073349;28;20196;-57
2022/08/02 05:16:50;;;;;;;13.73;7.73;;;16.80;99.90;;;;;;5073344;28;20650;-58
2022/08/02 05:19:18;;;;;;;10.83;8.33;;;16.90;99.90;;;;;;5073488;28;20667;-57
2022/08/02 05:21:47;;;;;;;13.93;7.37;;;17.00;99.90;;;;;;5073244;28;20675;-57
2022/08/02 05:24:16;;;;;;;8.77;7.67;;;17.10;99.90;;;;;;5073535;28;20650;-57
2022/08/02 05:26:45;;;;;;;8.90;8.00;;;17.10;99.90;;;;;;5073590;28;20197;-57
2022/08/02 05:29:14;;;;;;;11.60;9.10;;;17.20;99.90;;;;;;5073330;28;20234;-57
2022/08/02 05:31:44;;;;;;;12.33;7.97;;;17.30;99.90;;;;;;5072449;28;20213;-57
2022/08/02 05:34:12;;;;;;;9.50;7.77;;;17.40;99.90;;;;;;5089121;28;20207;-58
2022/08/02 05:36:41;;;;;;;10.03;7.97;;;17.50;99.90;;;;;;5093661;28;20198;-57
2022/08/02 05:39:10;;;;;;;12.23;8.03;;;17.60;99.90;;;;;;5093458;28;20247;-58
2022/08/02 05:41:47;;;;;;;8.63;7.77;;;17.70;99.90;;;;;;5076495;28;20199;-57
2022/08/02 05:44:15;;;;;;;11.20;8.17;;;17.80;99.90;;;;;;5064083;28;20203;-58
2022/08/02 05:46:44;;;;;;;12.07;8.00;;;17.90;99.90;;;;;;5071190;28;20231;-57
2022/08/02 05:49:14;;;;;;;12.73;7.43;;;18.10;99.90;;;;;;5053392;28;20192;-57
2022/08/02 05:51:50;;;;;;;11.63;7.37;;;18.20;99.90;;;;;;5058060;28;20212;-57
2022/08/02 05:54:23;;;;;;;9.00;7.47;;;18.30;99.90;;;;;;5073156;28;20203;-57
2022/08/02 05:57:03;;;;;;;8.37;7.13;;;18.50;99.90;;;;;;5073235;28;20192;-57
2022/08/02 05:59:36;;;;;;;13.80;7.43;;;18.60;99.90;;;;;;5073391;28;20208;-58
2022/08/02 06:02:22;;;;;;;8.00;6.50;;;18.80;99.90;;;;;;5073037;28;20206;-57
2022/08/02 06:05:04;;;;;;;9.93;6.20;;;18.80;99.90;;;;;;5083237;28;20192;-58
2022/08/02 06:07:35;;;;;;;7.17;6.13;;;18.90;99.90;;;;;;5073121;28;20202;-58
2022/08/02 06:10:05;;;;;;;9.13;7.10;;;18.90;99.90;;;;;;5073061;28;20571;-58
2022/08/02 06:12:41;;;;;;;7.13;6.43;;;19.20;99.90;;;;;;5085944;28;20247;-58
2022/08/02 06:15:13;;;;;;;9.17;6.67;;;19.40;99.90;;;;;;5069666;28;20253;-58
2022/08/02 06:17:42;;;;;;;7.33;6.43;;;19.50;99.90;;;;;;5072953;28;20203;-58
2022/08/02 06:20:16;;;;;;;14.20;7.37;;;19.70;99.90;;;;;;5072856;28;20204;-58
2022/08/02 06:22:45;;;;;;;8.00;6.70;;;19.70;99.90;;;;;;5072864;28;20195;-58
2022/08/02 06:25:14;;;;;;;7.80;6.40;;;19.70;99.90;;;;;;5069389;28;20283;-57
2022/08/02 06:28:06;;;;;;;7.73;6.60;;;19.70;99.90;;;;;;5062037;28;20192;-58
2022/08/02 06:30:39;;;;;;;10.47;6.67;;;19.80;99.90;;;;;;5072950;28;20211;-58
2022/08/02 06:33:08;;;;;;;8.50;6.80;;;20.00;99.90;;;;;;5072940;28;20243;-57
2022/08/02 06:35:45;;;;;;;8.00;6.37;;;19.80;99.90;;;;;;5072725;28;20192;-57
2022/08/02 06:38:20;;;;;;;9.03;7.23;;;19.80;99.90;;;;;;5072860;28;20196;-58
2022/08/02 06:40:56;;;;;;;9.17;6.80;;;19.80;99.90;;;;;;5073133;28;20184;-57
2022/08/02 06:43:38;;;;;;;7.83;5.50;;;19.90;99.90;;;;;;5075452;28;20218;-57
2022/08/02 06:46:07;;;;;;;10.93;6.20;;;20.10;99.90;;;;;;5108851;28;20627;-58
2022/08/02 06:48:56;;;;;;;8.17;5.87;;;20.30;99.90;;;;;;5061535;28;20227;-58
2022/08/02 06:51:25;;;;;;;11.13;6.47;;;20.40;99.90;;;;;;5076395;28;20215;-57
2022/08/02 06:53:53;;;;;;;6.83;5.40;;;20.60;99.90;;;;;;5076165;28;20303;-58
2022/08/02 06:56:22;;;;;;;9.60;6.20;;;20.70;99.90;;;;;;5075874;28;20192;-57
2022/08/02 06:58:52;;;;;;;9.03;5.97;;;20.80;99.90;;;;;;5074713;28;20204;-58
2022/08/02 07:01:20;;;;;;;9.93;6.20;;;21.00;99.90;;;;;;5074863;28;20192;-57
2022/08/02 07:03:49;;;;;;;8.73;5.70;;;21.10;99.90;;;;;;5076163;28;20200;-57
2022/08/02 07:06:18;;;;;;;7.43;5.40;;;21.20;99.90;;;;;;5075700;28;20711;-58
2022/08/02 07:08:47;;;;;;;13.70;7.10;;;21.30;99.90;;;;;;5075522;28;20228;-57
2022/08/02 07:11:36;;;;;;;8.60;5.70;;;21.30;99.90;;;;;;5075559;28;20525;-57
2022/08/02 07:14:06;;;;;;;7.00;5.60;;;21.20;99.90;;;;;;5075389;28;20560;-57
2022/08/02 07:16:34;;;;;;;9.43;5.67;;;21.30;99.90;;;;;;5108487;28;20199;-57
2022/08/02 07:19:03;;;;;;;5.67;5.00;;;21.40;99.90;;;;;;5074118;28;20299;-57
2022/08/02 07:21:31;;;;;;;6.60;4.50;;;21.40;99.90;;;;;;5108506;28;20194;-58
2022/08/02 07:24:20;;;;;;;5.83;4.60;;;21.50;99.90;;;;;;5073794;28;20196;-57
2022/08/02 07:26:48;;;;;;;4.60;4.30;;;21.90;99.90;;;;;;5075207;28;20188;-57
2022/08/02 07:29:38;;;;;;;4.83;4.43;;;22.00;99.90;;;;;;5075461;28;20185;-57
2022/08/02 07:32:14;;;;;;;7.07;4.07;;;21.90;99.90;;;;;;5073811;28;20525;-57
2022/08/02 07:34:43;;;;;;;7.50;4.00;;;22.10;99.90;;;;;;5075463;28;20186;-57
2022/08/02 07:37:19;;;;;;;6.83;4.40;;;22.40;99.90;;;;;;5055383;28;20596;-57
2022/08/02 07:40:09;;;;;;;5.53;4.07;;;22.60;99.90;;;;;;5066518;28;20607;-57
2022/08/02 07:42:43;;;;;;;3.97;3.50;;;22.80;99.90;;;;;;5074757;28;20194;-57
2022/08/02 07:45:13;;;;;;;4.63;3.00;;;23.20;99.90;;;;;;5064715;28;20223;-58
2022/08/02 07:47:43;;;;;;;3.53;3.30;;;23.20;99.90;;;;;;5067799;28;20187;-57
2022/08/02 07:50:13;;;;;;;3.83;3.53;;;23.40;99.90;;;;;;5067879;28;20224;-58
2022/08/02 07:52:41;;;;;;;9.00;3.50;;;23.30;99.90;;;;;;5074094;28;20212;-58
2022/08/02 07:55:11;;;;;;;7.10;3.17;;;23.20;99.90;;;;;;5073930;28;20192;-58
2022/08/02 07:57:40;;;;;;;3.20;2.80;;;23.30;99.90;;;;;;5063057;28;20209;-58
2022/08/02 08:00:17;;;;;;;5.30;3.17;;;23.70;99.90;;;;;;5073343;28;20196;-59
2022/08/02 08:02:45;;;;;;;3.30;2.70;;;24.00;99.90;;;;;;5074912;28;20188;-58
2022/08/02 08:05:15;;;;;;;3.03;2.33;;;24.00;99.90;;;;;;5074658;28;20202;-58
2022/08/02 08:07:43;;;;;;;3.30;2.50;;;24.10;99.90;;;;;;5073371;28;20196;-58
2022/08/02 08:10:11;;;;;;;2.75;2.50;;;24.10;99.90;;;;;;5071356;28;20240;-57
2022/08/02 08:12:40;;;;;;;2.80;2.60;;;25.00;99.90;;;;;;5055283;28;20217;-58
2022/08/02 08:15:09;;;;;;;5.68;2.83;;;25.40;99.90;;;;;;5054427;28;20196;-58
2022/08/02 08:17:39;;;;;;;2.50;2.40;;;25.60;99.90;;;;;;5067401;28;20207;-58
2022/08/02 08:20:08;;;;;;;2.60;2.40;;;25.60;99.90;;;;;;5054491;28;20189;-58
2022/08/02 08:22:42;;;;;;;2.28;2.10;;;25.70;99.90;;;;;;5058462;28;20196;-58
2022/08/02 08:25:11;;;;;;;2.67;2.10;;;25.80;99.90;;;;;;5064444;28;20248;-57
2022/08/02 08:27:47;;;;;;;1.95;1.63;;;25.70;99.90;;;;;;5063703;28;20275;-58
2022/08/02 08:30:16;;;;;;;1.70;1.60;;;25.80;99.90;;;;;;5072316;28;20200;-58
2022/08/02 08:32:46;;;;;;;4.07;1.50;;;25.90;99.90;;;;;;5056720;28;20588;-58
2022/08/02 08:35:15;;;;;;;2.20;1.85;;;26.30;99.90;;;;;;5070382;28;20192;-58
2022/08/02 08:37:43;;;;;;;1.35;1.30;;;26.30;99.90;;;;;;5073881;28;20640;-58
2022/08/02 08:40:13;;;;;;;3.22;1.80;;;26.40;99.90;;;;;;5068520;28;20544;-58
2022/08/02 08:42:47;;;;;;;4.65;1.60;;;26.00;99.90;;;;;;5062050;28;20194;-58
2022/08/02 08:45:16;;;;;;;1.73;1.60;;;25.70;99.90;;;;;;5072432;28;20197;-57
2022/08/02 08:47:52;;;;;;;1.48;1.48;;;25.60;99.90;;;;;;5073775;28;20598;-58
2022/08/02 08:50:23;;;;;;;4.55;2.10;;;25.30;99.90;;;;;;5070573;28;20686;-58
2022/08/02 08:52:57;;;;;;;3.00;1.83;;;25.30;99.90;;;;;;5074144;28;20254;-58
2022/08/02 08:55:28;;;;;;;1.77;1.70;;;25.50;99.90;;;;;;5077623;28;20291;-58
2022/08/02 08:57:59;;;;;;;2.70;1.83;;;26.40;99.90;;;;;;5070371;28;20265;-58
2022/08/02 09:00:29;;;;;;;1.50;1.45;;;27.00;99.90;;;;;;5062270;28;20268;-58
2022/08/02 09:03:03;;;;;;;6.90;1.90;;;26.90;99.90;;;;;;5073052;28;20228;-58
2022/08/02 09:05:35;;;;;;;7.55;2.00;;;27.30;99.90;;;;;;5067431;28;20205;-59
2022/08/02 09:08:04;;;;;;;3.28;1.90;;;27.40;99.90;;;;;;5061821;28;20298;-58
2022/08/02 09:10:38;;;;;;;2.10;1.88;;;27.80;99.90;;;;;;5064084;28;20231;-58
2022/08/02 09:13:12;;;;;;;1.90;1.75;;;27.60;99.90;;;;;;5053287;28;20220;-58
2022/08/02 09:16:02;;;;;;;4.60;2.58;;;27.70;99.90;;;;;;5066680;28;20196;-59
2022/08/02 09:18:44;;;;;;;2.72;2.10;;;27.80;99.90;;;;;;5071722;28;20238;-58
2022/08/02 09:21:16;;;;;;;2.47;2.28;;;27.70;99.90;;;;;;5067129;28;20210;-58
2022/08/02 09:23:46;;;;;;;3.70;2.10;;;28.00;99.90;;;;;;5072054;28;20644;-58
2022/08/02 09:26:17;;;;;;;2.85;2.30;;;28.20;99.90;;;;;;5073092;28;20192;-58
2022/08/02 09:28:48;;;;;;;1.90;1.80;;;28.00;99.90;;;;;;5072815;28;20772;-58
2022/08/02 09:31:19;;;;;;;2.08;1.95;;;27.80;99.90;;;;;;5072805;28;20237;-58
2022/08/02 09:33:53;;;;;;;2.58;1.80;;;27.50;99.90;;;;;;5071745;28;20214;-58
2022/08/02 09:36:23;;;;;;;1.63;1.52;;;27.50;99.90;;;;;;5059231;28;20227;-57
2022/08/02 09:38:56;;;;;;;4.05;1.85;;;27.30;99.90;;;;;;5051634;28;20620;-58
2022/08/02 09:41:27;;;;;;;2.47;1.70;;;27.40;99.90;;;;;;5066739;28;20199;-58
2022/08/02 09:43:56;;;;;;;1.75;1.50;;;27.50;99.90;;;;;;5070787;28;20274;-58
2022/08/02 09:46:36;;;;;;;1.75;1.50;;;27.20;99.90;;;;;;5067168;28;20595;-58
2022/08/02 09:49:09;;;;;;;2.60;1.50;;;27.00;99.90;;;;;;5071356;28;20224;-58
2022/08/02 09:51:39;;;;;;;4.07;1.80;;;27.30;99.90;;;;;;5072556;28;20408;-58
2022/08/02 09:54:10;;;;;;;4.00;1.98;;;28.00;99.90;;;;;;5072722;28;20603;-57
2022/08/02 09:56:45;;;;;;;3.13;1.50;;;28.70;99.90;;;;;;5073071;28;20204;-58
2022/08/02 09:59:14;;;;;;;3.15;1.60;;;29.10;99.90;;;;;;5058090;28;20195;-59
2022/08/02 10:01:43;;;;;;;2.50;1.40;;;29.60;99.90;;;;;;5069142;28;20231;-58
2022/08/02 10:04:53;;;;;;;1.40;1.40;;;30.20;99.90;;;;;;5101655;28;20207;-59
2022/08/02 10:07:22;;;;;;;2.80;1.70;;;30.50;99.90;;;;;;5069606;28;20220;-58
2022/08/02 10:09:51;;;;;;;2.67;1.40;;;30.10;99.90;;;;;;5072054;28;20311;-58
2022/08/02 10:12:21;;;;;;;1.50;1.50;;;30.00;99.90;;;;;;5066803;28;20194;-58
2022/08/02 10:14:51;;;;;;;3.28;1.50;;;30.00;99.90;;;;;;5060982;28;20295;-58
2022/08/02 10:17:20;;;;;;;3.92;1.55;;;29.60;99.90;;;;;;5072703;28;20210;-58
2022/08/02 10:19:49;;;;;;;1.67;1.65;;;28.70;99.90;;;;;;5076591;28;20195;-57
2022/08/02 10:22:34;;;;;;;1.75;1.65;;;28.20;99.90;;;;;;5076434;28;20183;-58
2022/08/02 10:25:03;;;;;;;1.70;1.60;;;27.80;99.90;;;;;;5059131;28;20193;-58
2022/08/02 10:27:33;;;;;;;3.25;1.70;;;27.80;99.90;;;;;;5060895;28;20284;-58
2022/08/02 10:30:23;;;;;;;2.10;1.58;;;28.00;99.90;;;;;;5075347;28;20210;-58
2022/08/02 10:32:53;;;;;;;1.83;1.55;;;28.40;99.90;;;;;;5081655;28;20285;-58
2022/08/02 10:35:24;;;;;;;1.60;1.50;;;28.90;99.90;;;;;;5075383;28;20220;-57
2022/08/02 10:38:02;;;;;;;4.20;1.60;;;29.10;99.90;;;;;;5068935;28;20201;-58
2022/08/02 10:40:44;;;;;;;1.52;1.52;;;29.20;99.90;;;;;;5074882;28;20202;-56
2022/08/02 10:43:13;;;;;;;2.47;1.40;;;29.50;99.90;;;;;;5074983;28;20200;-58
2022/08/02 10:45:41;;;;;;;2.15;1.40;;;29.70;99.90;;;;;;5075658;28;20207;-58
2022/08/02 10:48:14;;;;;;;1.88;1.40;;;29.90;99.90;;;;;;5104858;28;20200;-57
2022/08/02 10:50:55;;;;;;;1.10;1.10;;;30.20;99.90;;;;;;5090407;28;20201;-58
2022/08/02 10:53:30;;;;;;;2.17;1.58;;;30.30;99.90;;;;;;5108126;28;20695;-58
2022/08/02 10:56:00;;;;;;;1.98;1.70;;;30.70;99.90;;;;;;5075912;28;20282;-58
2022/08/02 10:58:31;;;;;;;1.92;1.38;;;30.60;99.90;;;;;;5075642;28;20266;-57
2022/08/02 11:01:04;;;;;;;2.00;1.40;;;30.80;99.90;;;;;;5081171;28;20227;-58
2022/08/02 11:03:39;;;;;;;1.50;1.50;;;30.70;99.90;;;;;;5076538;28;20202;-58
2022/08/02 11:06:10;;;;;;;1.60;1.50;;;31.00;99.90;;;;;;5073867;28;20208;-58
2022/08/02 11:09:27;;;;;;;2.67;1.63;;;30.90;99.90;;;;;;5068644;28;20608;-58
2022/08/02 11:12:03;;;;;;;4.53;1.42;;;31.10;99.90;;;;;;5075188;28;20213;-57
2022/08/02 11:14:34;;;;;;;4.10;1.38;;;30.70;99.90;;;;;;5065690;28;20326;-57
2022/08/02 11:17:12;;;;;;;2.42;1.13;;;30.60;99.90;;;;;;5073192;28;20279;-58
2022/08/02 11:23:39;;;;;;;3.70;1.27;;;30.50;99.90;;;;;;5071561;28;20195;-58
2022/08/02 11:26:45;;;;;;;1.80;1.65;;;30.20;99.90;;;;;;5081006;28;20202;-57
2022/08/02 11:29:14;;;;;;;5.32;1.23;;;30.20;99.90;;;;;;5060759;28;20204;-57
2022/08/02 11:31:44;;;;;;;1.58;1.10;;;30.60;99.90;;;;;;5062436;28;20250;-57
2022/08/02 11:34:13;;;;;;;1.23;1.10;;;30.70;99.90;;;;;;5071343;28;20238;-60
2022/08/02 11:37:02;;;;;;;1.50;1.27;;;30.70;99.90;;;;;;5087892;28;20207;-59
2022/08/02 11:39:30;;;;;;;4.20;1.50;;;30.40;99.90;;;;;;5072379;28;20283;-59
2022/08/02 11:42:01;;;;;;;7.63;1.20;;;30.10;99.90;;;;;;5063770;28;20585;-59
2022/08/02 11:44:39;;;;;;;1.77;1.48;;;30.10;99.90;;;;;;5072186;28;20281;-58
2022/08/02 11:47:07;;;;;;;2.60;1.30;;;30.20;99.90;;;;;;5065790;28;20275;-58
2022/08/02 11:49:37;;;;;;;1.60;1.50;;;30.10;99.90;;;;;;5071994;28;20280;-59
2022/08/02 11:52:09;;;;;;;2.15;1.50;;;30.00;99.90;;;;;;5072962;28;20199;-59
2022/08/02 11:54:40;;;;;;;1.40;1.30;;;29.90;99.90;;;;;;5070401;28;20223;-58
2022/08/02 11:57:17;;;;;;;2.55;1.40;;;29.90;99.90;;;;;;5065190;28;20199;-59
2022/08/02 11:59:53;;;;;;;1.40;1.30;;;30.10;99.90;;;;;;5072224;28;20302;-58
2022/08/02 12:02:23;;;;;;;3.97;1.40;;;30.10;99.90;;;;;;5078927;28;20280;-59
2022/08/02 12:04:54;;;;;;;3.35;1.40;;;30.30;99.90;;;;;;5067581;28;20670;-59
2022/08/02 12:07:30;;;;;;;2.65;1.38;;;30.20;99.90;;;;;;5072494;28;20212;-59
2022/08/02 12:10:07;;;;;;;2.20;1.20;;;30.10;99.90;;;;;;5062733;28;20589;-58
2022/08/02 12:12:49;;;;;;;1.23;1.23;;;30.20;99.90;;;;;;5070965;28;20722;-58
2022/08/02 12:15:30;;;;;;;3.20;1.17;;;30.40;99.90;;;;;;5069472;28;20214;-58
2022/08/02 12:20:45;;;;;;;1.38;1.33;;;30.50;99.90;;;;;;5087533;28;20194;-59
2022/08/02 12:23:13;;;;;;;4.22;1.40;;;30.50;99.90;;;;;;5081742;28;20208;-60
2022/08/02 12:29:14;;;;;;;1.20;1.20;;;30.20;99.90;;;;;;5070235;28;20193;-58
2022/08/02 12:32:04;;;;;;;1.65;1.20;;;29.90;99.90;;;;;;5073768;28;20197;-57
2022/08/02 12:34:35;;;;;;;2.35;1.40;;;30.10;99.90;;;;;;5073098;28;20229;-58
2022/08/02 12:37:06;;;;;;;1.65;1.55;;;30.10;99.90;;;;;;5073509;28;20197;-58
2022/08/02 12:39:37;;;;;;;1.35;1.27;;;29.90;99.90;;;;;;5062578;28;20194;-58
2022/08/02 12:42:24;;;;;;;1.55;1.25;;;30.00;99.90;;;;;;5072030;28;20693;-58
2022/08/02 12:44:56;;;;;;;1.27;1.27;;;30.10;99.90;;;;;;5069250;28;20268;-58
2022/08/02 12:47:26;;;;;;;2.80;1.17;;;30.20;99.90;;;;;;5067660;28;20544;-58
2022/08/02 12:50:13;;;;;;;2.60;1.20;;;29.90;99.90;;;;;;5071894;28;20210;-58
2022/08/02 12:52:42;;;;;;;1.10;1.10;;;29.80;99.90;;;;;;5101460;28;20211;-58
2022/08/02 12:55:47;;;;;;;1.40;1.30;;;30.10;99.90;;;;;;5062301;28;20753;-57
2022/08/02 12:58:48;;;;;;;2.10;1.10;;;30.20;99.90;;;;;;5058856;28;20195;-57
2022/08/02 13:01:22;;;;;;;4.35;1.30;;;30.00;99.90;;;;;;5077233;28;20299;-58
2022/08/02 13:03:51;;;;;;;1.42;1.08;;;29.60;99.90;;;;;;5059420;28;20201;-58
2022/08/02 13:06:39;;;;;;;1.35;1.30;;;29.60;99.90;;;;;;5059448;28;20211;-57
2022/08/02 13:09:14;;;;;;;1.95;1.30;;;29.90;99.90;;;;;;5073054;28;20227;-58
2022/08/02 13:11:43;;;;;;;1.95;1.40;;;30.10;99.90;;;;;;5073501;28;20196;-57
2022/08/02 13:14:12;;;;;;;1.60;1.15;;;30.10;99.90;;;;;;5072286;28;20203;-58
2022/08/02 13:16:46;;;;;;;3.03;1.48;;;29.90;99.90;;;;;;5072468;28;20195;-59
2022/08/02 13:19:15;;;;;;;1.30;1.20;;;29.90;99.90;;;;;;5073687;28;20250;-58
2022/08/02 13:21:45;;;;;;;7.32;1.50;;;29.90;99.90;;;;;;5069170;28;20195;-57
2022/08/02 13:24:30;;;;;;;4.03;1.40;;;29.80;99.90;;;;;;5092015;28;20299;-58
2022/08/02 13:27:20;;;;;;;6.35;1.50;;;29.80;99.90;;;;;;5084700;28;20217;-58
2022/08/02 13:29:49;;;;;;;2.10;1.38;;;29.90;99.90;;;;;;5064436;28;20194;-58
2022/08/02 13:32:24;;;;;;;1.85;1.27;;;29.80;99.90;;;;;;5068607;28;20196;-57
2022/08/02 13:34:52;;;;;;;1.40;1.30;;;29.90;99.90;;;;;;5063826;28;20247;-57
2022/08/02 13:37:21;;;;;;;4.90;1.42;;;30.10;99.90;;;;;;5065093;28;20615;-57
2022/08/02 13:39:49;;;;;;;3.72;1.75;;;30.10;99.90;;;;;;5075270;28;20195;-58